Meath Environmental Platform

Observations for Trim Patrick St

Time AQI Temp °C Hum % Pres Pa CO μg/m³ H₂S μg/m³ NO μg/m³ NO₂ μg/m³ O₃ μg/m³ SO₂ μg/m³ PM1 μg/m³ PM2.5 μg/m³ PM10 μg/m³
Tuesday 4 August 2026
18:36 2 27 51 70,235 0 5.28 0.89 11.99 90.09 11.17 2 7.09 7.8
18:35 2 27 51 70,259 0 3.97 0.94 11.78 77.67 11.01 2.86 7.86 8.65
18:34 2 27 52 70,297 0 7.07 0.96 11.77 81.69 11.22 3.71 7.81 8.59
18:33 2 27 52 70,313 0 5.92 0.95 12.55 59.59 10.89 2.86 7.81 8.59
18:32 2 27 53 70,266 0 12.61 0.92 14.2 89.03 11.4 3.71 9.27 10.2
18:31 2 27 52 70,196 0 9.84 0.95 12.4 83.75 11.57 4.57 9.3 10.22
18:30 2 27.1 53 70,166 0 11.01 0.9 12.68 91.88 11.92 2.86 7.76 8.53
18:28 2 27.2 52 70,148 0 9.64 0.93 12.47 95.55 11.98 2.86 7.05 7.76
18:27 2 27.3 52 70,138 0 8.3 0.94 12.67 88.59 11.51 4.57 8.59 9.45
18:25 2 27.4 51 70,107 0 7.57 0.94 12.66 81.66 11.57 2.86 7.1 7.81
18:20 2 27 54 70,396 0 14.37 0.8 12.75 106.52 12.52 2.86 7.7 8.47
18:17 2 26.8 53 70,097 0 14.17 0.86 12.69 99.44 12.56 3.71 8.47 9.31
18:14 2 27.2 52 69,820 0 7.64 0.96 11.03 91.59 12.56 2 6.31 6.94
18:13 2 27.3 52 69,772 0 7.63 0.94 12.31 80.19 13.01 2.86 7.08 7.79
18:11 2 27.6 51 69,697 0 5.96 0.88 12.64 83.29 12.58 3.71 7.9 8.69
18:10 2 27.8 50 69,636 0 7.17 0.89 11.45 89.78 13.51 2.86 7.14 7.86
18:09 2 28 50 69,599 0 6.01 0.91 12.25 91.48 13.03 2.86 7.15 7.87
18:08 2 28.2 50 69,549 0 5.27 0.85 12.42 89.42 13.25 2 6.38 7.02
18:07 2 28.3 50 69,487 0 1.26 0.89 11.74 77.39 13.14 2.86 7.21 7.93
18:06 2 28.5 49 69,469 0 1.99 0.91 11.2 90.85 13.14 2 6.47 7.12